createdAt,value
2022-11-27T00:01:26.038Z,4.30
2022-11-27T00:03:54.396Z,4.75
2022-11-27T00:06:23.783Z,3.92
2022-11-27T00:08:50.809Z,4.68
2022-11-27T00:11:20.276Z,5.55
2022-11-27T00:13:47.814Z,4.53
2022-11-27T00:16:15.314Z,4.10
2022-11-27T00:18:42.388Z,4.10
2022-11-27T00:21:15.276Z,3.50
2022-11-27T00:23:42.472Z,4.10
2022-11-27T00:26:09.716Z,5.63
2022-11-27T00:28:36.712Z,4.18
2022-11-27T00:31:06.464Z,3.85
2022-11-27T00:33:33.403Z,4.55
2022-11-27T00:36:09.529Z,5.35
2022-11-27T00:38:39.220Z,3.83
2022-11-27T00:41:07.025Z,4.03
2022-11-27T00:43:43.720Z,3.70
2022-11-27T00:46:13.169Z,3.92
2022-11-27T00:48:39.850Z,3.65
2022-11-27T00:51:08.690Z,3.05
2022-11-27T00:53:35.656Z,3.38
2022-11-27T00:56:02.808Z,3.55
2022-11-27T00:58:30.564Z,4.13
2022-11-27T01:00:59.608Z,3.75
2022-11-27T01:03:27.634Z,3.50
2022-11-27T01:05:54.658Z,3.20
2022-11-27T01:08:21.849Z,3.55
2022-11-27T01:10:54.598Z,3.47
2022-11-27T01:13:30.903Z,3.97
2022-11-27T01:16:12.242Z,3.10
2022-11-27T01:18:40.724Z,3.40
2022-11-27T01:21:08.149Z,3.72
2022-11-27T01:23:34.902Z,3.85
2022-11-27T01:26:03.328Z,3.88
2022-11-27T01:28:30.887Z,3.88
2022-11-27T01:30:57.777Z,3.80
2022-11-27T01:33:24.770Z,3.50
2022-11-27T01:35:59.250Z,3.40
2022-11-27T01:38:26.705Z,3.45
2022-11-27T01:41:02.373Z,3.30
2022-11-27T01:43:49.517Z,3.33
2022-11-27T01:46:41.688Z,3.25
2022-11-27T01:51:59.857Z,3.28
2022-11-27T01:54:32.443Z,2.85
2022-11-27T01:57:04.479Z,2.38
2022-11-27T01:59:31.251Z,3.15
2022-11-27T02:01:57.979Z,2.88
2022-11-27T02:04:24.638Z,3.45
2022-11-27T02:06:51.477Z,3.65
2022-11-27T02:09:18.110Z,3.95
2022-11-27T02:12:24.803Z,3.28
2022-11-27T02:15:04.206Z,3.33
2022-11-27T02:17:42.203Z,3.28
2022-11-27T02:20:36.183Z,3.40
2022-11-27T02:23:29.197Z,4.32
2022-11-27T02:26:20.665Z,3.72
2022-11-27T02:29:07.762Z,4.27
2022-11-27T02:31:44.967Z,3.70
2022-11-27T02:34:24.213Z,3.40
2022-11-27T02:37:01.166Z,3.40
2022-11-27T02:39:38.455Z,4.22
2022-11-27T02:42:14.378Z,4.20
2022-11-27T02:44:46.429Z,4.30
2022-11-27T02:47:14.697Z,4.43
2022-11-27T02:49:42.961Z,4.00
2022-11-27T02:52:11.798Z,4.47
2022-11-27T02:54:40.283Z,3.97
2022-11-27T02:57:08.726Z,4.55
2022-11-27T02:59:37.145Z,3.85
2022-11-27T03:02:11.530Z,3.75
2022-11-27T03:04:44.219Z,4.47
2022-11-27T03:07:16.683Z,5.10
2022-11-27T03:09:48.279Z,5.38
2022-11-27T03:12:17.618Z,3.72
2022-11-27T03:14:45.592Z,4.00
2022-11-27T03:17:41.406Z,4.55
2022-11-27T03:20:26.905Z,4.38
2022-11-27T03:22:56.969Z,4.32
2022-11-27T03:25:24.699Z,4.60
2022-11-27T03:28:00.982Z,4.20
2022-11-27T03:30:27.660Z,4.13
2022-11-27T03:32:54.975Z,4.53
2022-11-27T03:35:24.714Z,4.13
2022-11-27T03:37:52.360Z,4.40
2022-11-27T03:40:19.420Z,3.58
2022-11-27T03:43:08.757Z,3.80
2022-11-27T03:45:57.495Z,4.35
2022-11-27T03:48:53.290Z,4.55
2022-11-27T03:51:49.435Z,3.65
2022-11-27T03:54:32.112Z,4.32
2022-11-27T03:57:14.677Z,4.22
2022-11-27T03:59:44.670Z,4.57
2022-11-27T04:02:15.569Z,5.05
2022-11-27T04:04:42.375Z,3.92
2022-11-27T04:07:17.297Z,4.90
2022-11-27T04:09:44.025Z,4.38
2022-11-27T04:12:10.790Z,5.30
2022-11-27T04:14:37.574Z,4.70
2022-11-27T04:17:04.331Z,5.20
2022-11-27T04:19:30.906Z,5.03
2022-11-27T04:21:57.473Z,5.13
2022-11-27T04:24:24.114Z,4.28
2022-11-27T04:26:50.666Z,4.97
2022-11-27T04:29:17.873Z,4.05
2022-11-27T04:31:44.462Z,4.00
2022-11-27T04:34:11.167Z,5.03
2022-11-27T04:36:39.493Z,4.30
2022-11-27T04:39:06.562Z,4.93
2022-11-27T04:41:33.139Z,5.07
2022-11-27T04:43:59.734Z,4.63
2022-11-27T04:46:26.415Z,4.75
2022-11-27T04:48:52.993Z,4.43
2022-11-27T04:51:19.578Z,3.83
2022-11-27T04:53:46.265Z,4.47
2022-11-27T04:56:12.966Z,4.18
2022-11-27T04:58:39.538Z,4.75
2022-11-27T05:01:08.954Z,4.97
2022-11-27T05:03:36.058Z,4.15
2022-11-27T05:06:02.695Z,3.75
2022-11-27T05:08:31.054Z,4.43
2022-11-27T05:11:07.049Z,4.93
2022-11-27T05:13:34.486Z,4.63
2022-11-27T05:16:01.453Z,4.43
2022-11-27T05:18:28.101Z,4.45
2022-11-27T05:20:59.426Z,3.33
2022-11-27T05:23:26.708Z,4.60
2022-11-27T05:25:53.708Z,3.83
2022-11-27T05:28:26.382Z,4.40
2022-11-27T05:30:54.049Z,3.60
2022-11-27T05:33:20.770Z,3.92
2022-11-27T05:35:47.353Z,4.20
2022-11-27T05:38:13.942Z,3.90
2022-11-27T05:40:40.539Z,4.00
2022-11-27T05:43:07.166Z,3.95
2022-11-27T05:45:33.807Z,3.63
2022-11-27T05:48:00.452Z,3.58
2022-11-27T05:50:27.021Z,4.60
2022-11-27T05:52:53.602Z,3.97
2022-11-27T05:55:20.166Z,5.22
2022-11-27T05:57:46.739Z,4.20
2022-11-27T06:00:14.278Z,4.75
2022-11-27T06:02:41.075Z,4.20
2022-11-27T06:05:08.424Z,4.00
2022-11-27T06:07:35.103Z,4.22
2022-11-27T06:10:01.821Z,2.92
2022-11-27T06:12:28.428Z,3.63
2022-11-27T06:14:55.089Z,4.50
2022-11-27T06:17:21.683Z,3.85
2022-11-27T06:19:48.306Z,4.20
2022-11-27T06:22:14.888Z,4.15
2022-11-27T06:24:41.621Z,3.67
2022-11-27T06:27:08.434Z,3.85
2022-11-27T06:29:37.105Z,3.95
2022-11-27T06:32:04.464Z,4.43
2022-11-27T06:34:31.201Z,4.72
2022-11-27T06:36:57.839Z,3.85
2022-11-27T06:39:24.463Z,3.70
2022-11-27T06:41:51.095Z,3.83
2022-11-27T06:44:17.692Z,3.78
2022-11-27T06:46:44.251Z,4.18
2022-11-27T06:49:10.969Z,4.07
2022-11-27T06:51:37.625Z,3.80
2022-11-27T06:54:04.418Z,3.90
2022-11-27T06:56:32.208Z,3.58
2022-11-27T06:59:00.540Z,5.40
2022-11-27T07:01:29.479Z,4.28
2022-11-27T07:03:56.877Z,3.63
2022-11-27T07:06:25.350Z,4.45
2022-11-27T07:08:52.974Z,4.97
2022-11-27T07:11:22.587Z,3.42
2022-11-27T07:13:50.543Z,3.95
2022-11-27T07:16:17.993Z,4.13
2022-11-27T07:18:47.877Z,4.30
2022-11-27T07:21:15.142Z,3.65
2022-11-27T07:23:41.791Z,4.05
2022-11-27T07:26:11.669Z,3.80
2022-11-27T07:28:39.021Z,4.10
2022-11-27T07:31:06.386Z,4.22
2022-11-27T07:33:33.067Z,3.88
2022-11-27T07:36:10.751Z,3.95
2022-11-27T07:38:37.386Z,4.22
2022-11-27T07:41:04.872Z,4.30
2022-11-27T07:43:33.067Z,4.28
2022-11-27T07:46:03.659Z,4.03
2022-11-27T07:48:30.305Z,4.78
2022-11-27T07:50:57.107Z,4.63
2022-11-27T07:53:23.701Z,4.30
2022-11-27T07:55:50.297Z,3.35
2022-11-27T07:58:17.278Z,3.65
2022-11-27T08:00:44.205Z,3.90
2022-11-27T08:03:11.177Z,4.03
2022-11-27T08:05:38.047Z,3.95
2022-11-27T08:08:04.998Z,4.00
2022-11-27T08:10:35.250Z,4.05
2022-11-27T08:13:01.931Z,3.97
2022-11-27T08:15:28.595Z,4.35
2022-11-27T08:17:55.223Z,3.75
2022-11-27T08:20:21.981Z,3.65
2022-11-27T08:22:48.643Z,4.22
2022-11-27T08:25:15.643Z,4.10
2022-11-27T08:27:42.213Z,4.00
2022-11-27T08:30:09.588Z,3.80
2022-11-27T08:32:39.870Z,4.07
2022-11-27T08:35:07.135Z,4.63
2022-11-27T08:37:34.165Z,4.68
2022-11-27T08:40:00.753Z,4.55
2022-11-27T08:42:27.349Z,4.22
2022-11-27T08:44:53.978Z,3.95
2022-11-27T08:47:20.641Z,4.30
2022-11-27T08:49:47.236Z,3.97
2022-11-27T08:52:13.894Z,4.03
2022-11-27T08:54:40.670Z,4.25
2022-11-27T08:57:07.462Z,4.50
2022-11-27T08:59:34.138Z,3.70
2022-11-27T09:02:00.936Z,4.60
2022-11-27T09:04:28.610Z,4.13
2022-11-27T09:07:00.390Z,3.97
2022-11-27T09:09:27.188Z,4.70
2022-11-27T09:11:56.834Z,4.28
2022-11-27T09:14:23.394Z,3.80
2022-11-27T09:16:50.118Z,3.78
2022-11-27T09:19:17.089Z,3.80
2022-11-27T09:21:43.743Z,4.20
2022-11-27T09:24:10.562Z,3.80
2022-11-27T09:26:37.178Z,4.45
2022-11-27T09:29:04.055Z,4.13
2022-11-27T09:31:30.868Z,3.95
2022-11-27T09:33:58.433Z,4.30
2022-11-27T09:36:26.609Z,3.90
2022-11-27T09:38:53.940Z,4.03
2022-11-27T09:41:46.490Z,4.95
2022-11-27T09:44:31.246Z,4.30
2022-11-27T09:47:04.763Z,4.28
2022-11-27T09:49:40.382Z,5.22
2022-11-27T09:52:17.606Z,4.20
2022-11-27T09:55:00.486Z,4.72
2022-11-27T09:57:36.961Z,4.70
2022-11-27T10:00:13.710Z,4.75
2022-11-27T10:02:42.999Z,4.90
2022-11-27T10:05:25.306Z,5.28
2022-11-27T10:10:27.315Z,4.47
2022-11-27T10:13:24.688Z,6.78
2022-11-27T10:16:01.927Z,5.75
2022-11-27T10:18:39.698Z,5.20
2022-11-27T10:21:24.830Z,5.78
2022-11-27T10:24:16.695Z,5.40
2022-11-27T10:26:49.312Z,5.93
2022-11-27T10:29:33.723Z,5.97
2022-11-27T10:32:32.944Z,4.78
2022-11-27T10:34:58.766Z,5.68
2022-11-27T10:37:38.226Z,4.88
2022-11-27T10:40:11.756Z,4.88
2022-11-27T10:42:58.151Z,5.38
2022-11-27T10:45:45.921Z,5.22
2022-11-27T10:48:13.541Z,5.10
2022-11-27T10:50:41.527Z,5.55
2022-11-27T10:53:23.994Z,5.18
2022-11-27T10:56:04.706Z,4.78
2022-11-27T10:58:44.074Z,5.25
2022-11-27T11:01:17.728Z,5.13
2022-11-27T11:03:44.831Z,4.78
2022-11-27T11:06:25.279Z,4.90
2022-11-27T11:09:03.383Z,5.22
2022-11-27T11:11:30.024Z,4.90
2022-11-27T11:13:56.749Z,5.82
2022-11-27T11:16:29.387Z,5.82
2022-11-27T11:19:01.448Z,5.75
2022-11-27T11:21:38.723Z,4.50
2022-11-27T11:24:12.742Z,4.53
2022-11-27T11:26:44.360Z,5.10
2022-11-27T11:29:51.303Z,5.15
2022-11-27T11:32:20.905Z,4.82
2022-11-27T11:35:09.543Z,5.78
2022-11-27T11:37:41.799Z,5.57
2022-11-27T11:40:16.260Z,5.53
2022-11-27T11:42:54.057Z,5.07
2022-11-27T11:45:22.420Z,5.45
2022-11-27T11:48:00.720Z,5.53
2022-11-27T11:50:46.527Z,5.68
2022-11-27T11:53:20.230Z,5.63
2022-11-27T11:56:17.065Z,5.65
2022-11-27T11:59:15.831Z,5.50
2022-11-27T12:01:59.056Z,5.65
2022-11-27T12:05:04.544Z,5.63
2022-11-27T12:08:02.421Z,5.75
2022-11-27T12:10:38.192Z,5.97
2022-11-27T12:13:33.144Z,6.30
2022-11-27T12:16:04.635Z,6.13
2022-11-27T12:18:52.161Z,5.53
2022-11-27T12:21:43.212Z,6.43
2022-11-27T12:24:37.856Z,6.57
2022-11-27T12:27:13.558Z,5.88
2022-11-27T12:30:03.145Z,7.93
2022-11-27T12:33:04.198Z,6.00
2022-11-27T12:35:43.165Z,5.50
2022-11-27T12:38:40.747Z,6.03
2022-11-27T12:41:26.856Z,6.20
2022-11-27T12:43:59.915Z,5.45
2022-11-27T12:46:59.459Z,5.95
2022-11-27T12:49:28.906Z,5.90
2022-11-27T12:52:09.591Z,5.45
2022-11-27T12:54:52.710Z,6.05
2022-11-27T12:57:27.317Z,5.03
2022-11-27T13:00:01.886Z,5.95
2022-11-27T13:02:38.122Z,5.53
2022-11-27T13:05:13.508Z,5.75
2022-11-27T13:07:59.667Z,5.93
2022-11-27T13:10:41.302Z,5.40
2022-11-27T13:13:21.993Z,5.05
2022-11-27T13:15:54.620Z,5.78
2022-11-27T13:18:26.017Z,5.57
2022-11-27T13:20:53.239Z,6.10
2022-11-27T13:23:21.115Z,6.18
2022-11-27T13:25:54.171Z,6.35
2022-11-27T13:28:35.808Z,5.45
2022-11-27T13:31:04.206Z,5.85
2022-11-27T13:33:36.876Z,5.93
2022-11-27T13:36:07.033Z,6.07
2022-11-27T13:38:36.350Z,5.82
2022-11-27T13:41:05.641Z,6.10
2022-11-27T13:43:41.743Z,6.20
2022-11-27T13:46:19.094Z,6.45
2022-11-27T13:48:53.746Z,6.68
2022-11-27T13:51:27.572Z,5.13
2022-11-27T13:54:06.119Z,5.50
2022-11-27T13:56:32.761Z,4.75
2022-11-27T13:58:59.518Z,5.15
2022-11-27T14:01:26.405Z,5.15
2022-11-27T14:03:53.290Z,5.38
2022-11-27T14:06:28.801Z,5.43
2022-11-27T14:09:01.169Z,4.18
2022-11-27T14:11:41.149Z,6.03
2022-11-27T14:14:21.845Z,5.40
2022-11-27T14:16:55.768Z,5.85
2022-11-27T14:19:33.361Z,5.78
2022-11-27T14:22:01.868Z,6.20
2022-11-27T14:24:47.044Z,5.63
2022-11-27T14:27:20.661Z,5.50
2022-11-27T14:29:47.696Z,5.57
2022-11-27T14:32:16.614Z,5.60
2022-11-27T14:34:43.901Z,6.80
2022-11-27T14:37:40.131Z,6.22
2022-11-27T14:40:14.977Z,6.28
2022-11-27T14:42:41.597Z,6.25
2022-11-27T14:45:13.705Z,6.43
2022-11-27T14:47:46.729Z,6.63
2022-11-27T14:50:14.570Z,8.63
2022-11-27T14:52:49.390Z,7.18
2022-11-27T14:55:17.280Z,9.02
2022-11-27T14:57:45.638Z,9.32
2022-11-27T15:00:18.062Z,7.95
2022-11-27T15:02:46.962Z,9.88
2022-11-27T15:05:26.383Z,9.00
2022-11-27T15:07:56.637Z,8.15
2022-11-27T15:10:34.878Z,7.88
2022-11-27T15:13:02.726Z,7.25
2022-11-27T15:15:34.698Z,7.75
2022-11-27T15:18:04.748Z,7.72
2022-11-27T15:20:45.080Z,7.10
2022-11-27T15:23:20.369Z,6.97
2022-11-27T15:26:17.836Z,7.13
2022-11-27T15:28:49.543Z,6.70
2022-11-27T15:31:37.347Z,7.28
2022-11-27T15:34:16.271Z,6.97
2022-11-27T15:37:06.368Z,7.20
2022-11-27T15:39:48.620Z,7.65
2022-11-27T15:42:17.541Z,8.18
2022-11-27T15:44:44.805Z,7.97
2022-11-27T15:47:28.264Z,8.10
2022-11-27T15:49:55.586Z,7.68
2022-11-27T15:52:22.391Z,7.85
2022-11-27T15:54:50.006Z,8.40
2022-11-27T15:57:16.686Z,7.80
2022-11-27T15:59:43.444Z,8.45
2022-11-27T16:02:17.811Z,8.07
2022-11-27T16:04:45.106Z,7.63
2022-11-27T16:07:11.803Z,7.78
2022-11-27T16:09:39.634Z,7.47
2022-11-27T16:12:06.438Z,8.50
2022-11-27T16:14:33.120Z,8.88
2022-11-27T16:17:01.201Z,8.63
2022-11-27T16:19:28.354Z,6.43
2022-11-27T16:21:55.105Z,7.00
2022-11-27T16:24:21.723Z,7.22
2022-11-27T16:26:48.366Z,7.72
2022-11-27T16:29:15.140Z,12.63
2022-11-27T16:31:41.827Z,11.02
2022-11-27T16:34:08.463Z,7.30
2022-11-27T16:36:35.299Z,8.13
2022-11-27T16:39:01.862Z,7.18
2022-11-27T16:41:28.418Z,7.53
2022-11-27T16:43:56.673Z,9.18
2022-11-27T16:46:29.503Z,9.30
2022-11-27T16:48:58.752Z,7.47
2022-11-27T16:51:33.941Z,8.38
2022-11-27T16:54:03.628Z,7.65
2022-11-27T16:56:31.440Z,8.32
2022-11-27T16:59:02.613Z,6.75
2022-11-27T17:01:34.218Z,7.88
2022-11-27T17:04:03.359Z,7.93
2022-11-27T17:06:32.501Z,8.32
2022-11-27T17:09:00.708Z,8.77
2022-11-27T17:11:32.076Z,7.55
2022-11-27T17:14:01.060Z,7.10
2022-11-27T17:16:28.422Z,8.13
2022-11-27T17:18:55.369Z,8.15
2022-11-27T17:21:28.013Z,7.60
2022-11-27T17:24:02.682Z,6.88
2022-11-27T17:26:31.617Z,5.90
2022-11-27T17:28:59.449Z,7.68
2022-11-27T17:31:36.824Z,8.82
2022-11-27T17:34:07.292Z,7.25
2022-11-27T17:36:37.117Z,8.23
2022-11-27T17:39:05.460Z,5.95
2022-11-27T17:41:32.432Z,7.68
2022-11-27T17:43:59.118Z,7.70
2022-11-27T17:46:27.960Z,7.55
2022-11-27T17:48:58.923Z,7.43
2022-11-27T17:51:26.332Z,6.80
2022-11-27T17:53:53.275Z,7.30
2022-11-27T17:56:20.773Z,7.00
2022-11-27T17:58:47.753Z,5.93
2022-11-27T18:01:17.754Z,6.80
2022-11-27T18:03:46.173Z,7.40
2022-11-27T18:06:13.843Z,6.93
2022-11-27T18:08:40.599Z,8.00
2022-11-27T18:11:10.015Z,8.50
2022-11-27T18:13:36.872Z,8.10
2022-11-27T18:16:19.112Z,8.52
2022-11-27T18:18:46.162Z,7.63
2022-11-27T18:21:18.237Z,8.23
2022-11-27T18:24:20.875Z,9.23
2022-11-27T18:29:20.821Z,7.07
2022-11-27T18:31:47.592Z,8.20
2022-11-27T18:34:14.306Z,7.20
2022-11-27T18:36:40.906Z,8.35
2022-11-27T18:39:07.558Z,8.82
2022-11-27T18:41:34.712Z,8.40
2022-11-27T18:44:01.322Z,9.07
2022-11-27T18:46:28.108Z,9.00
2022-11-27T18:48:54.895Z,7.85
2022-11-27T18:51:24.207Z,6.85
2022-11-27T18:53:51.800Z,8.60
2022-11-27T18:56:19.861Z,8.77
2022-11-27T18:58:46.894Z,8.95
2022-11-27T19:01:28.425Z,8.32
2022-11-27T19:03:56.068Z,7.68
2022-11-27T19:06:24.899Z,7.90
2022-11-27T19:08:52.189Z,8.70
2022-11-27T19:11:21.740Z,6.85
2022-11-27T19:13:49.691Z,8.10
2022-11-27T19:16:18.913Z,7.95
2022-11-27T19:18:45.651Z,7.25
2022-11-27T19:21:18.266Z,7.75
2022-11-27T19:23:45.662Z,8.00
2022-11-27T19:26:14.446Z,8.40
2022-11-27T19:28:41.763Z,7.40
2022-11-27T19:31:12.062Z,7.85
2022-11-27T19:33:39.504Z,8.02
2022-11-27T19:36:09.724Z,8.27
2022-11-27T19:38:37.959Z,8.68
2022-11-27T19:41:09.515Z,8.90
2022-11-27T19:43:36.158Z,8.57
2022-11-27T19:46:02.935Z,9.27
2022-11-27T19:48:29.578Z,9.77
2022-11-27T19:51:01.930Z,11.73
2022-11-27T19:53:28.513Z,8.63
2022-11-27T19:55:55.609Z,9.27
2022-11-27T19:58:22.267Z,6.05
2022-11-27T20:00:48.952Z,9.45
2022-11-27T20:03:15.594Z,7.20
2022-11-27T20:05:42.157Z,10.05
2022-11-27T20:08:08.775Z,10.25
2022-11-27T20:10:35.482Z,9.68
2022-11-27T20:13:02.520Z,9.20
2022-11-27T20:15:29.388Z,9.13
2022-11-27T20:17:56.026Z,9.02
2022-11-27T20:20:22.696Z,7.90
2022-11-27T20:22:50.232Z,8.85
2022-11-27T20:25:19.949Z,8.90
2022-11-27T20:27:47.179Z,9.32
2022-11-27T20:30:14.055Z,8.57
2022-11-27T20:32:40.699Z,8.52
2022-11-27T20:35:07.644Z,7.85
2022-11-27T20:37:34.849Z,7.63
2022-11-27T20:40:01.522Z,7.88
2022-11-27T20:42:28.161Z,8.15
2022-11-27T20:44:54.804Z,7.57
2022-11-27T20:47:21.372Z,7.75
2022-11-27T20:49:47.997Z,8.55
2022-11-27T20:52:14.927Z,7.97
2022-11-27T20:54:41.543Z,6.18
2022-11-27T20:57:13.858Z,7.75
2022-11-27T20:59:41.725Z,7.95
2022-11-27T21:02:12.103Z,7.93
2022-11-27T21:04:38.866Z,7.82
2022-11-27T21:07:05.560Z,8.35
2022-11-27T21:09:32.309Z,7.68
2022-11-27T21:11:59.132Z,8.27
2022-11-27T21:14:25.785Z,5.55
2022-11-27T21:16:53.789Z,7.22
2022-11-27T21:19:26.190Z,7.72
2022-11-27T21:21:54.241Z,7.65
2022-11-27T21:24:22.238Z,7.38
2022-11-27T21:26:50.102Z,6.97
2022-11-27T21:29:17.466Z,7.45
2022-11-27T21:31:47.084Z,7.25
2022-11-27T21:34:14.476Z,7.50
2022-11-27T21:36:41.092Z,8.00
2022-11-27T21:39:10.508Z,7.38
2022-11-27T21:41:37.095Z,8.13
2022-11-27T21:44:04.951Z,7.82
2022-11-27T21:46:31.747Z,7.32
2022-11-27T21:49:01.108Z,8.07
2022-11-27T21:51:29.307Z,7.10
2022-11-27T21:53:57.623Z,7.43
2022-11-27T21:56:26.144Z,8.63
2022-11-27T21:58:53.121Z,7.57
2022-11-27T22:01:22.688Z,7.97
2022-11-27T22:03:56.519Z,8.10
2022-11-27T22:06:26.886Z,8.45
2022-11-27T22:08:56.658Z,7.82
2022-11-27T22:11:30.215Z,8.23
2022-11-27T22:13:58.746Z,8.27
2022-11-27T22:16:27.911Z,8.50
2022-11-27T22:18:56.499Z,7.53
2022-11-27T22:21:23.540Z,6.57
2022-11-27T22:23:50.349Z,7.75
2022-11-27T22:26:21.740Z,8.13
2022-11-27T22:28:48.742Z,8.50
2022-11-27T22:31:17.653Z,7.75
2022-11-27T22:33:45.543Z,8.90
2022-11-27T22:36:22.503Z,8.68
2022-11-27T22:38:51.611Z,9.18
2022-11-27T22:41:19.485Z,9.75
2022-11-27T22:43:46.085Z,7.93
2022-11-27T22:46:18.761Z,8.10
2022-11-27T22:48:45.964Z,7.82
2022-11-27T22:51:13.204Z,7.95
2022-11-27T22:53:40.097Z,8.40
2022-11-27T22:56:10.600Z,7.85
2022-11-27T22:58:41.382Z,7.88
2022-11-27T23:01:20.180Z,8.27
2022-11-27T23:03:46.935Z,7.05
2022-11-27T23:06:15.763Z,7.97
2022-11-27T23:08:44.191Z,7.63
2022-11-27T23:11:15.208Z,7.88
2022-11-27T23:13:47.966Z,7.87
2022-11-27T23:16:17.103Z,7.10
2022-11-27T23:18:44.062Z,7.60
2022-11-27T23:21:16.524Z,7.47
2022-11-27T23:23:43.615Z,6.82
2022-11-27T23:26:17.566Z,7.20
2022-11-27T23:28:45.575Z,7.60
2022-11-27T23:31:32.000Z,8.43
2022-11-27T23:34:01.672Z,7.68
2022-11-27T23:36:29.000Z,7.43
2022-11-27T23:38:55.627Z,8.88
2022-11-27T23:41:24.714Z,8.05
2022-11-27T23:43:52.915Z,8.48
2022-11-27T23:46:21.956Z,7.03
2022-11-27T23:48:48.928Z,8.18
2022-11-27T23:51:27.966Z,7.90
2022-11-27T23:53:54.870Z,7.45
2022-11-27T23:56:23.670Z,8.10
2022-11-27T23:58:50.376Z,7.45
